createdAt,value
2022-12-16T00:01:16.728Z,-0.86
2022-12-16T00:03:49.322Z,-0.65
2022-12-16T00:06:20.169Z,-0.39
2022-12-16T00:08:47.978Z,0.10
2022-12-16T00:11:15.967Z,-0.12
2022-12-16T00:13:44.164Z,-0.17
2022-12-16T00:16:15.432Z,0.09
2022-12-16T00:18:43.546Z,-0.05
2022-12-16T00:21:12.272Z,0.34
2022-12-16T00:23:41.704Z,0.24
2022-12-16T00:26:10.249Z,-0.07
2022-12-16T00:28:38.246Z,0.22
2022-12-16T00:31:06.475Z,0.26
2022-12-16T00:33:36.189Z,0.23
2022-12-16T00:36:04.363Z,0.25
2022-12-16T00:38:32.114Z,0.11
2022-12-16T00:41:00.099Z,0.26
2022-12-16T00:43:27.801Z,0.27
2022-12-16T00:45:55.563Z,0.36
2022-12-16T00:48:23.966Z,0.06
2022-12-16T00:50:55.395Z,0.46
2022-12-16T00:53:24.219Z,0.59
2022-12-16T00:55:52.358Z,0.57
2022-12-16T00:58:21.479Z,0.53
2022-12-16T01:00:49.232Z,0.72
2022-12-16T01:03:21.590Z,0.34
2022-12-16T01:05:50.453Z,0.64
2022-12-16T01:08:20.029Z,0.81
2022-12-16T01:10:51.962Z,0.78
2022-12-16T01:13:21.282Z,0.49
2022-12-16T01:15:49.177Z,0.53
2022-12-16T01:18:20.011Z,0.53
2022-12-16T01:20:47.786Z,0.62
2022-12-16T01:23:15.499Z,0.55
2022-12-16T01:25:44.882Z,0.49
2022-12-16T01:28:12.589Z,0.39
2022-12-16T01:30:40.335Z,0.66
2022-12-16T01:33:08.044Z,0.56
2022-12-16T01:35:55.207Z,0.58
2022-12-16T01:38:23.853Z,0.46
2022-12-16T01:40:52.941Z,0.57
2022-12-16T01:43:26.492Z,0.65
2022-12-16T01:45:58.105Z,0.53
2022-12-16T01:48:36.957Z,0.64
2022-12-16T01:51:09.146Z,0.65
2022-12-16T01:53:39.917Z,0.80
2022-12-16T01:56:09.709Z,0.61
2022-12-16T01:58:40.560Z,0.53
2022-12-16T02:01:09.148Z,0.54
2022-12-16T02:03:38.509Z,0.36
2022-12-16T02:06:08.081Z,0.26
2022-12-16T02:08:36.416Z,0.48
2022-12-16T02:11:37.653Z,0.40
2022-12-16T02:14:34.160Z,0.29
2022-12-16T02:17:10.584Z,0.20
2022-12-16T02:20:15.009Z,0.23
2022-12-16T02:23:00.265Z,0.25
2022-12-16T02:25:48.384Z,0.19
2022-12-16T02:28:33.588Z,0.21
2022-12-16T02:33:48.516Z,0.62
2022-12-16T02:36:26.051Z,0.25
2022-12-16T02:39:00.163Z,0.71
2022-12-16T02:41:39.004Z,0.31
2022-12-16T02:44:09.401Z,0.41
2022-12-16T02:46:41.881Z,0.55
2022-12-16T02:49:44.629Z,0.86
2022-12-16T02:52:13.748Z,0.56
2022-12-16T02:54:42.046Z,0.68
2022-12-16T02:57:23.903Z,0.71
2022-12-16T03:00:03.452Z,0.79
2022-12-16T03:02:39.355Z,0.79
2022-12-16T03:05:15.666Z,1.01
2022-12-16T03:07:46.073Z,0.75
2022-12-16T03:10:18.527Z,0.93
2022-12-16T03:12:47.199Z,0.83
2022-12-16T03:15:20.058Z,0.89
2022-12-16T03:17:49.919Z,0.76
2022-12-16T03:20:24.079Z,0.83
2022-12-16T03:22:53.311Z,0.79
2022-12-16T03:25:22.500Z,0.82
2022-12-16T03:27:58.519Z,0.83
2022-12-16T03:30:29.688Z,0.78
2022-12-16T03:33:03.069Z,0.64
2022-12-16T03:35:38.082Z,0.66
2022-12-16T03:38:09.140Z,0.76
2022-12-16T03:40:39.516Z,0.80
2022-12-16T03:43:09.050Z,0.90
2022-12-16T03:45:39.091Z,0.42
2022-12-16T03:48:08.917Z,0.59
2022-12-16T03:50:39.410Z,0.87
2022-12-16T03:53:08.494Z,0.80
2022-12-16T03:55:36.359Z,0.27
2022-12-16T03:58:04.292Z,0.75
2022-12-16T04:00:32.732Z,0.79
2022-12-16T04:03:00.877Z,0.60
2022-12-16T04:05:29.118Z,0.59
2022-12-16T04:08:01.832Z,0.50
2022-12-16T04:10:47.667Z,0.54
2022-12-16T04:13:33.428Z,0.47
2022-12-16T04:16:19.583Z,0.96
2022-12-16T04:19:06.108Z,1.15
2022-12-16T04:21:51.452Z,0.83
2022-12-16T04:24:30.045Z,1.05
2022-12-16T04:27:16.098Z,0.95
2022-12-16T04:29:58.010Z,1.05
2022-12-16T04:32:25.860Z,0.95
2022-12-16T04:34:52.908Z,0.93
2022-12-16T04:37:38.344Z,0.92
2022-12-16T04:40:26.335Z,0.99
2022-12-16T04:43:11.716Z,0.96
2022-12-16T04:45:57.614Z,1.06
2022-12-16T04:48:51.082Z,0.64
2022-12-16T04:51:36.362Z,1.08
2022-12-16T04:54:21.714Z,1.08
2022-12-16T04:57:08.369Z,1.00
2022-12-16T04:59:53.663Z,0.83
2022-12-16T05:02:39.049Z,0.63
2022-12-16T05:05:25.151Z,1.09
2022-12-16T05:08:10.478Z,1.07
2022-12-16T05:10:55.750Z,1.06
2022-12-16T05:13:42.415Z,1.02
2022-12-16T05:16:27.829Z,1.04
2022-12-16T05:19:14.011Z,0.89
2022-12-16T05:21:59.224Z,0.83
2022-12-16T05:24:47.330Z,0.89
2022-12-16T05:27:36.330Z,1.03
2022-12-16T05:30:23.358Z,1.05
2022-12-16T05:33:08.664Z,1.03
2022-12-16T05:36:05.454Z,1.33
2022-12-16T05:38:50.823Z,0.61
2022-12-16T05:41:36.160Z,0.50
2022-12-16T05:44:21.458Z,0.43
2022-12-16T05:47:08.156Z,0.30
2022-12-16T05:49:53.247Z,0.89
2022-12-16T05:52:39.120Z,1.00
2022-12-16T05:55:27.896Z,0.62
2022-12-16T05:58:17.319Z,0.52
2022-12-16T06:01:17.117Z,0.91
2022-12-16T06:04:17.755Z,1.09
2022-12-16T06:07:03.232Z,1.08
2022-12-16T06:09:53.139Z,0.88
2022-12-16T06:12:41.531Z,0.99
2022-12-16T06:15:27.699Z,1.08
2022-12-16T06:18:13.163Z,1.28
2022-12-16T06:21:08.277Z,1.19
2022-12-16T06:23:53.626Z,0.98
2022-12-16T06:26:39.036Z,1.19
2022-12-16T06:29:24.316Z,0.79
2022-12-16T06:32:09.630Z,0.70
2022-12-16T06:34:54.777Z,0.71
2022-12-16T06:37:41.422Z,0.61
2022-12-16T06:40:28.096Z,0.59
2022-12-16T06:43:13.452Z,1.04
2022-12-16T06:45:58.899Z,0.63
2022-12-16T06:48:43.980Z,0.52
2022-12-16T06:51:29.438Z,0.85
2022-12-16T06:54:16.040Z,1.08
2022-12-16T06:57:01.229Z,0.60
2022-12-16T06:59:46.453Z,0.21
2022-12-16T07:02:31.858Z,0.55
2022-12-16T07:05:17.236Z,0.88
2022-12-16T07:08:06.475Z,0.97
2022-12-16T07:10:53.014Z,1.13
2022-12-16T07:13:40.742Z,0.76
2022-12-16T07:16:26.038Z,0.78
2022-12-16T07:19:11.136Z,1.24
2022-12-16T07:21:56.624Z,0.76
2022-12-16T07:24:41.866Z,0.65
2022-12-16T07:27:28.533Z,1.10
2022-12-16T07:30:13.831Z,1.05
2022-12-16T07:32:59.165Z,1.43
2022-12-16T07:35:44.649Z,1.31
2022-12-16T07:38:29.940Z,1.14
2022-12-16T07:41:15.263Z,1.41
2022-12-16T07:44:01.787Z,1.59
2022-12-16T07:46:47.298Z,1.36
2022-12-16T07:49:32.716Z,1.07
2022-12-16T07:52:17.964Z,1.09
2022-12-16T07:55:03.194Z,1.25
2022-12-16T07:57:48.380Z,1.50
2022-12-16T08:00:35.394Z,1.45
2022-12-16T08:03:20.779Z,1.29
2022-12-16T08:06:07.347Z,1.13
2022-12-16T08:08:52.632Z,0.83
2022-12-16T08:11:37.857Z,1.41
2022-12-16T08:14:25.426Z,1.20
2022-12-16T08:17:12.308Z,1.39
2022-12-16T08:19:57.463Z,1.35
2022-12-16T08:22:42.863Z,1.42
2022-12-16T08:25:28.285Z,1.33
2022-12-16T08:28:13.688Z,1.48
2022-12-16T08:30:58.920Z,1.33
2022-12-16T08:33:45.779Z,1.36
2022-12-16T08:36:31.136Z,1.33
2022-12-16T08:39:16.610Z,1.35
2022-12-16T08:42:01.857Z,1.41
2022-12-16T08:44:47.259Z,1.54
2022-12-16T08:47:32.514Z,1.16
2022-12-16T08:50:19.287Z,1.61
2022-12-16T08:53:04.602Z,1.58
2022-12-16T08:55:50.053Z,1.83
2022-12-16T08:58:35.302Z,1.69
2022-12-16T09:01:20.827Z,1.97
2022-12-16T09:04:06.269Z,1.77
2022-12-16T09:06:52.697Z,1.83
2022-12-16T09:09:37.889Z,1.91
2022-12-16T09:12:23.271Z,1.60
2022-12-16T09:15:08.748Z,1.78
2022-12-16T09:17:54.010Z,1.97
2022-12-16T09:20:39.261Z,2.06
2022-12-16T09:23:25.915Z,2.05
2022-12-16T09:26:11.381Z,2.08
2022-12-16T09:28:56.457Z,2.21
2022-12-16T09:31:41.822Z,2.30
2022-12-16T09:34:26.943Z,2.26
2022-12-16T09:37:12.327Z,2.32
2022-12-16T09:39:58.885Z,2.25
2022-12-16T09:42:55.376Z,2.51
2022-12-16T09:45:50.778Z,2.52
2022-12-16T09:48:43.033Z,2.68
2022-12-16T09:51:29.826Z,2.83
2022-12-16T09:54:16.129Z,3.07
2022-12-16T09:57:04.159Z,2.91
2022-12-16T09:59:53.404Z,3.23
2022-12-16T10:02:39.554Z,3.07
2022-12-16T10:05:30.181Z,3.18
2022-12-16T10:08:23.076Z,3.04
2022-12-16T10:11:17.628Z,2.95
2022-12-16T10:14:15.990Z,2.99
2022-12-16T10:17:10.951Z,2.92
2022-12-16T10:20:12.282Z,3.35
2022-12-16T10:23:04.155Z,3.08
2022-12-16T10:25:57.924Z,3.25
2022-12-16T10:28:56.884Z,3.28
2022-12-16T10:31:40.380Z,3.14
2022-12-16T10:34:32.287Z,3.26
2022-12-16T10:37:21.123Z,3.28
2022-12-16T10:40:09.284Z,3.29
2022-12-16T10:42:59.168Z,3.21
2022-12-16T10:45:47.461Z,3.81
2022-12-16T10:48:41.053Z,3.93
2022-12-16T10:51:32.988Z,3.42
2022-12-16T10:54:29.479Z,3.67
2022-12-16T10:57:23.851Z,4.30
2022-12-16T11:00:09.166Z,3.68
2022-12-16T11:02:56.874Z,3.75
2022-12-16T11:05:50.927Z,5.74
2022-12-16T11:08:43.799Z,4.16
2022-12-16T11:11:40.333Z,3.65
2022-12-16T11:14:38.794Z,4.34
2022-12-16T11:17:33.195Z,3.65
2022-12-16T11:20:33.404Z,5.05
2022-12-16T11:23:35.123Z,3.70
2022-12-16T11:26:35.864Z,3.51
2022-12-16T11:29:29.023Z,3.57
2022-12-16T11:32:21.826Z,3.53
2022-12-16T11:35:13.310Z,3.25
2022-12-16T11:38:00.184Z,4.84
2022-12-16T11:40:49.000Z,5.73
2022-12-16T11:43:36.592Z,4.98
2022-12-16T11:46:28.645Z,4.71
2022-12-16T11:49:23.374Z,4.68
2022-12-16T11:52:35.813Z,5.67
2022-12-16T11:56:03.207Z,6.03
2022-12-16T11:58:47.968Z,7.06
2022-12-16T12:01:51.884Z,7.01
2022-12-16T12:04:41.248Z,6.59
2022-12-16T12:07:44.555Z,6.37
2022-12-16T12:10:48.694Z,6.95
2022-12-16T12:13:49.710Z,6.59
2022-12-16T12:16:43.773Z,7.00
2022-12-16T12:19:34.336Z,6.51
2022-12-16T12:22:26.197Z,6.56
2022-12-16T12:25:20.140Z,6.83
2022-12-16T12:28:13.695Z,6.90
2022-12-16T12:31:06.045Z,6.46
2022-12-16T12:34:15.746Z,7.03
2022-12-16T12:37:10.141Z,6.29
2022-12-16T12:40:01.419Z,6.42
2022-12-16T12:42:55.082Z,6.70
2022-12-16T12:46:01.169Z,7.13
2022-12-16T12:48:57.440Z,7.33
2022-12-16T12:51:48.995Z,7.24
2022-12-16T12:54:41.701Z,7.29
2022-12-16T12:57:35.250Z,6.37
2022-12-16T13:00:23.562Z,6.89
2022-12-16T13:03:15.962Z,6.94
2022-12-16T13:06:02.988Z,7.28
2022-12-16T13:09:04.167Z,6.00
2022-12-16T13:11:49.478Z,6.34
2022-12-16T13:15:13.035Z,5.91
2022-12-16T13:18:31.774Z,6.16
2022-12-16T13:21:18.863Z,5.47
2022-12-16T13:24:04.625Z,5.85
2022-12-16T13:26:52.015Z,5.94
2022-12-16T13:29:39.903Z,5.80
2022-12-16T13:32:36.377Z,6.22
2022-12-16T13:35:24.335Z,6.01
2022-12-16T13:38:12.265Z,5.64
2022-12-16T13:41:14.234Z,6.11
2022-12-16T13:44:10.320Z,6.13
2022-12-16T13:47:01.579Z,5.83
2022-12-16T13:50:00.047Z,5.80
2022-12-16T13:52:56.116Z,5.57
2022-12-16T13:55:47.973Z,5.58
2022-12-16T13:58:40.468Z,5.42
2022-12-16T14:01:31.414Z,5.29
2022-12-16T14:04:19.649Z,5.20
2022-12-16T14:07:04.942Z,5.11
2022-12-16T14:09:55.215Z,5.01
2022-12-16T14:13:11.419Z,4.97
2022-12-16T14:16:09.345Z,4.70
2022-12-16T14:19:05.848Z,4.42
2022-12-16T14:21:58.151Z,4.17
2022-12-16T14:24:46.433Z,4.18
2022-12-16T14:27:34.706Z,4.06
2022-12-16T14:30:47.872Z,3.39
2022-12-16T14:33:41.558Z,3.16
2022-12-16T14:36:41.147Z,3.14
2022-12-16T14:39:30.583Z,3.06
2022-12-16T14:42:16.061Z,2.84
2022-12-16T14:45:04.287Z,2.95
2022-12-16T14:47:50.786Z,2.75
2022-12-16T14:50:43.819Z,2.65
2022-12-16T14:53:33.805Z,2.54
2022-12-16T14:56:36.647Z,2.76
2022-12-16T14:59:31.471Z,2.61
2022-12-16T15:02:22.208Z,2.52
2022-12-16T15:05:08.165Z,2.03
2022-12-16T15:07:56.522Z,2.49
2022-12-16T15:10:45.694Z,2.30
2022-12-16T15:13:36.422Z,2.13
2022-12-16T15:16:23.564Z,1.96
2022-12-16T15:19:15.882Z,1.74
2022-12-16T15:22:03.222Z,1.54
2022-12-16T15:24:53.552Z,1.44
2022-12-16T15:27:43.496Z,1.63
2022-12-16T15:30:52.244Z,1.77
2022-12-16T15:33:39.852Z,1.55
2022-12-16T15:36:40.267Z,1.17
2022-12-16T15:39:38.006Z,1.06
2022-12-16T15:42:26.096Z,1.38
2022-12-16T15:45:11.573Z,1.67
2022-12-16T15:47:57.392Z,1.83
2022-12-16T15:50:45.259Z,1.32
2022-12-16T15:53:46.833Z,1.19
2022-12-16T15:56:37.710Z,1.47
2022-12-16T15:59:37.562Z,1.46
2022-12-16T16:02:25.884Z,1.15
2022-12-16T16:05:12.595Z,0.95
2022-12-16T16:08:03.468Z,0.91
2022-12-16T16:10:49.026Z,0.93
2022-12-16T16:13:35.908Z,0.86
2022-12-16T16:16:21.840Z,0.96
2022-12-16T16:19:06.917Z,0.77
2022-12-16T16:21:52.288Z,0.52
2022-12-16T16:24:37.785Z,0.38
2022-12-16T16:27:29.741Z,0.31
2022-12-16T16:30:16.834Z,0.05
2022-12-16T16:33:02.215Z,0.12
2022-12-16T16:35:54.126Z,0.85
2022-12-16T16:38:39.428Z,0.19
2022-12-16T16:41:32.155Z,0.52
2022-12-16T16:44:19.864Z,0.71
2022-12-16T16:47:07.131Z,0.78
2022-12-16T16:49:56.138Z,0.24
2022-12-16T16:52:55.016Z,0.44
2022-12-16T16:55:42.225Z,-0.31
2022-12-16T16:58:33.155Z,-0.33
2022-12-16T17:01:18.617Z,-0.70
2022-12-16T17:04:05.598Z,-0.50
2022-12-16T17:06:51.407Z,-0.51
2022-12-16T17:09:36.733Z,-0.67
2022-12-16T17:12:39.975Z,-0.44
2022-12-16T17:15:33.482Z,0.02
2022-12-16T17:18:15.439Z,-0.44
2022-12-16T17:21:01.812Z,-0.59
2022-12-16T17:23:47.271Z,-0.17
2022-12-16T17:26:32.449Z,-0.46
2022-12-16T17:29:17.792Z,-0.58
2022-12-16T17:32:03.108Z,-1.07
2022-12-16T17:34:48.215Z,-0.82
2022-12-16T17:37:34.857Z,-0.55
2022-12-16T17:40:20.029Z,-0.50
2022-12-16T17:43:05.256Z,-0.58
2022-12-16T17:45:50.651Z,-0.64
2022-12-16T17:48:35.973Z,-0.53
2022-12-16T17:51:22.345Z,-1.47
2022-12-16T17:54:17.664Z,-1.02
2022-12-16T17:57:07.287Z,-0.66
2022-12-16T17:59:54.722Z,-0.63
2022-12-16T18:02:40.474Z,-0.93
2022-12-16T18:05:29.964Z,-1.82
2022-12-16T18:08:20.622Z,-1.31
2022-12-16T18:11:10.584Z,-1.40
2022-12-16T18:13:55.906Z,-1.22
2022-12-16T18:16:41.345Z,-1.58
2022-12-16T18:19:27.151Z,-1.61
2022-12-16T18:22:12.417Z,-1.52
2022-12-16T18:24:57.742Z,-1.88
2022-12-16T18:27:44.977Z,-1.63
2022-12-16T18:30:30.768Z,-2.24
2022-12-16T18:33:16.172Z,-2.28
2022-12-16T18:36:01.426Z,-2.50
2022-12-16T18:38:50.040Z,-2.43
2022-12-16T18:41:36.999Z,-2.35
2022-12-16T18:44:25.129Z,-2.66
2022-12-16T18:47:10.476Z,-2.36
2022-12-16T18:49:55.822Z,-2.52
2022-12-16T18:52:41.135Z,-3.08
2022-12-16T18:55:27.066Z,-3.25
2022-12-16T18:58:42.231Z,-3.37
2022-12-16T19:01:23.619Z,-3.06
2022-12-16T19:04:09.264Z,-3.33
2022-12-16T19:06:54.649Z,-3.40
2022-12-16T19:09:39.986Z,-3.78
2022-12-16T19:12:25.500Z,-3.48
2022-12-16T19:15:11.068Z,-3.77
2022-12-16T19:17:57.694Z,-3.19
2022-12-16T19:20:43.053Z,-3.45
2022-12-16T19:23:27.548Z,-3.22
2022-12-16T19:26:15.363Z,-3.49
2022-12-16T19:29:00.776Z,-3.79
2022-12-16T19:31:46.236Z,-3.83
2022-12-16T19:34:33.276Z,-3.97
2022-12-16T19:37:19.692Z,-3.77
2022-12-16T19:40:04.887Z,-3.71
2022-12-16T19:42:50.434Z,-3.61
2022-12-16T19:45:36.639Z,-3.74
2022-12-16T19:48:25.000Z,-3.87
2022-12-16T19:51:16.535Z,-4.09
2022-12-16T19:54:02.754Z,-4.27
2022-12-16T19:56:48.496Z,-4.16
2022-12-16T19:59:33.761Z,-4.31
2022-12-16T20:02:19.228Z,-4.15
2022-12-16T20:05:05.000Z,-3.81
2022-12-16T20:07:51.755Z,-4.01
2022-12-16T20:10:37.210Z,-3.75
2022-12-16T20:16:31.719Z,-3.84
2022-12-16T20:19:18.037Z,-3.82
2022-12-16T20:22:06.766Z,-4.01
2022-12-16T20:27:59.860Z,-3.85
2022-12-16T20:30:45.299Z,-3.73
2022-12-16T20:33:31.757Z,-3.79
2022-12-16T20:36:17.626Z,-3.67
2022-12-16T20:38:59.619Z,-4.11
2022-12-16T20:41:46.144Z,-4.41
2022-12-16T20:44:31.513Z,-4.06
2022-12-16T20:47:16.807Z,-4.43
2022-12-16T20:50:02.194Z,-4.05
2022-12-16T20:52:47.607Z,-3.94
2022-12-16T20:55:32.846Z,-4.35
2022-12-16T20:58:19.559Z,-4.30
2022-12-16T21:01:09.596Z,-4.64
2022-12-16T21:03:54.918Z,-4.48
2022-12-16T21:06:41.709Z,-4.10
2022-12-16T21:09:26.979Z,-4.47
2022-12-16T21:12:12.314Z,-4.45
2022-12-16T21:14:58.120Z,-4.46
2022-12-16T21:17:43.548Z,-4.32
2022-12-16T21:20:29.136Z,-3.81
2022-12-16T21:23:18.162Z,-4.26
2022-12-16T21:26:17.991Z,-4.55
2022-12-16T21:29:03.163Z,-3.75
2022-12-16T21:31:49.459Z,-4.43
2022-12-16T21:34:34.762Z,-3.97
2022-12-16T21:37:20.024Z,-4.33
2022-12-16T21:40:05.363Z,-3.96
2022-12-16T21:42:50.891Z,-3.74
2022-12-16T21:45:37.032Z,-3.94
2022-12-16T21:48:24.077Z,-4.00
2022-12-16T21:51:10.217Z,-3.92
2022-12-16T21:53:55.617Z,-4.33
2022-12-16T21:56:41.824Z,-4.60
2022-12-16T21:59:27.201Z,-4.51
2022-12-16T22:02:12.588Z,-4.53
2022-12-16T22:04:59.054Z,-4.17
2022-12-16T22:07:45.150Z,-4.41
2022-12-16T22:10:30.459Z,-4.53
2022-12-16T22:13:17.947Z,-4.66
2022-12-16T22:16:12.152Z,-5.19
2022-12-16T22:18:57.359Z,-5.33
2022-12-16T22:21:43.854Z,-4.53
2022-12-16T22:24:29.524Z,-5.05
2022-12-16T22:27:15.223Z,-5.30
2022-12-16T22:30:00.518Z,-5.45
2022-12-16T22:32:45.828Z,-5.38
2022-12-16T22:35:31.356Z,-5.68
2022-12-16T22:38:18.031Z,-5.64
2022-12-16T22:41:12.083Z,-5.73
2022-12-16T22:43:57.457Z,-6.12
2022-12-16T22:46:42.905Z,-5.87
2022-12-16T22:49:28.057Z,-5.81
2022-12-16T22:52:13.390Z,-6.00
2022-12-16T22:55:00.036Z,-5.85
2022-12-16T22:57:45.817Z,-5.72
2022-12-16T23:00:32.609Z,-5.81
2022-12-16T23:03:17.851Z,-5.89
2022-12-16T23:06:03.131Z,-5.32
2022-12-16T23:08:48.471Z,-5.25
2022-12-16T23:11:40.180Z,-5.42
2022-12-16T23:14:25.454Z,-5.24
2022-12-16T23:17:10.681Z,-5.73
2022-12-16T23:19:56.666Z,-5.47
2022-12-16T23:22:41.668Z,-5.78
2022-12-16T23:25:29.389Z,-5.52
2022-12-16T23:28:16.054Z,-5.60
2022-12-16T23:31:01.364Z,-5.78
2022-12-16T23:33:46.648Z,-5.59
2022-12-16T23:36:31.866Z,-5.81
2022-12-16T23:39:17.154Z,-5.56
2022-12-16T23:42:02.394Z,-6.05
2022-12-16T23:44:56.236Z,-6.04
2022-12-16T23:47:53.209Z,-5.73
2022-12-16T23:50:41.607Z,-6.06
2022-12-16T23:53:28.854Z,-5.52
2022-12-16T23:56:14.643Z,-5.70
2022-12-16T23:58:59.915Z,-5.73
